createdAt,value
2022-11-19T00:01:06.682Z,1.75
2022-11-19T00:03:34.866Z,2.00
2022-11-19T00:06:09.866Z,1.70
2022-11-19T00:08:37.185Z,1.90
2022-11-19T00:11:09.715Z,2.00
2022-11-19T00:13:37.587Z,1.60
2022-11-19T00:16:09.506Z,2.10
2022-11-19T00:18:36.021Z,1.75
2022-11-19T00:21:11.278Z,1.83
2022-11-19T00:23:38.091Z,2.00
2022-11-19T00:26:10.208Z,1.80
2022-11-19T00:28:37.131Z,1.92
2022-11-19T00:31:08.806Z,1.90
2022-11-19T00:33:35.916Z,1.88
2022-11-19T00:36:04.032Z,2.10
2022-11-19T00:38:31.369Z,2.30
2022-11-19T00:40:58.499Z,1.75
2022-11-19T00:43:43.753Z,2.20
2022-11-19T00:46:10.577Z,1.90
2022-11-19T00:48:39.119Z,2.20
2022-11-19T00:51:07.617Z,1.95
2022-11-19T00:53:34.623Z,1.90
2022-11-19T00:56:05.967Z,2.10
2022-11-19T00:58:32.693Z,2.08
2022-11-19T01:00:59.269Z,2.03
2022-11-19T01:03:27.019Z,2.10
2022-11-19T01:05:53.610Z,2.05
2022-11-19T01:08:20.256Z,2.10
2022-11-19T01:10:46.806Z,2.13
2022-11-19T01:13:32.149Z,2.20
2022-11-19T01:15:58.958Z,2.13
2022-11-19T01:18:27.686Z,2.30
2022-11-19T01:20:54.845Z,1.92
2022-11-19T01:23:21.400Z,2.58
2022-11-19T01:25:47.867Z,1.77
2022-11-19T01:28:14.358Z,2.00
2022-11-19T01:30:42.725Z,2.10
2022-11-19T01:33:09.574Z,2.17
2022-11-19T01:35:36.712Z,2.17
2022-11-19T01:38:04.225Z,2.38
2022-11-19T01:40:30.733Z,1.90
2022-11-19T01:42:57.233Z,2.42
2022-11-19T01:45:34.441Z,2.28
2022-11-19T01:48:23.435Z,1.98
2022-11-19T01:50:51.658Z,1.85
2022-11-19T01:53:19.941Z,2.00
2022-11-19T01:55:47.285Z,1.95
2022-11-19T01:58:20.008Z,2.08
2022-11-19T02:00:47.745Z,2.00
2022-11-19T02:03:15.453Z,2.10
2022-11-19T02:05:42.850Z,2.00
2022-11-19T02:08:30.358Z,1.90
2022-11-19T02:11:26.006Z,2.50
2022-11-19T02:14:07.711Z,2.10
2022-11-19T02:16:51.192Z,2.13
2022-11-19T02:19:51.047Z,2.05
2022-11-19T02:22:37.873Z,2.00
2022-11-19T02:25:10.080Z,2.15
2022-11-19T02:27:53.370Z,2.55
2022-11-19T02:30:20.133Z,2.08
2022-11-19T02:32:57.214Z,1.98
2022-11-19T02:35:45.353Z,2.08
2022-11-19T02:38:24.062Z,1.90
2022-11-19T02:40:57.189Z,1.98
2022-11-19T02:43:27.340Z,1.95
2022-11-19T02:46:01.824Z,2.15
2022-11-19T02:48:34.415Z,2.15
2022-11-19T02:51:03.163Z,2.10
2022-11-19T02:53:30.718Z,1.90
2022-11-19T02:56:12.321Z,1.88
2022-11-19T02:59:09.673Z,2.38
2022-11-19T03:01:59.795Z,2.10
2022-11-19T03:04:30.285Z,2.03
2022-11-19T03:07:09.251Z,2.20
2022-11-19T03:09:41.806Z,2.05
2022-11-19T03:12:20.938Z,2.13
2022-11-19T03:15:18.518Z,1.92
2022-11-19T03:18:01.297Z,2.15
2022-11-19T03:20:42.211Z,2.30
2022-11-19T03:23:39.578Z,2.00
2022-11-19T03:26:17.758Z,2.00
2022-11-19T03:28:47.398Z,2.10
2022-11-19T03:31:17.035Z,2.10
2022-11-19T03:33:46.452Z,2.25
2022-11-19T03:36:18.081Z,1.98
2022-11-19T03:38:49.388Z,2.33
2022-11-19T03:41:18.710Z,2.00
2022-11-19T03:43:51.366Z,2.00
2022-11-19T03:46:20.111Z,2.30
2022-11-19T03:48:51.130Z,2.17
2022-11-19T03:51:28.673Z,2.22
2022-11-19T03:53:55.217Z,2.05
2022-11-19T03:56:26.081Z,2.10
2022-11-19T03:58:53.935Z,2.10
2022-11-19T04:01:21.531Z,2.35
2022-11-19T04:04:08.006Z,2.50
2022-11-19T04:06:34.445Z,1.85
2022-11-19T04:09:00.898Z,2.17
2022-11-19T04:13:52.745Z,1.70
2022-11-19T04:16:19.254Z,2.45
2022-11-19T04:18:45.949Z,2.15
2022-11-19T04:21:12.579Z,2.10
2022-11-19T04:23:39.073Z,1.95
2022-11-19T04:26:05.720Z,2.08
2022-11-19T04:28:32.201Z,2.28
2022-11-19T04:30:58.647Z,2.10
2022-11-19T04:33:25.102Z,2.05
2022-11-19T04:35:51.562Z,2.25
2022-11-19T04:38:18.063Z,2.20
2022-11-19T04:40:44.652Z,2.08
2022-11-19T04:43:11.132Z,2.03
2022-11-19T04:45:37.620Z,2.10
2022-11-19T04:48:04.333Z,2.40
2022-11-19T04:50:30.914Z,2.00
2022-11-19T04:52:58.711Z,2.22
2022-11-19T04:55:25.197Z,2.10
2022-11-19T04:57:52.957Z,1.77
2022-11-19T05:00:19.730Z,2.20
2022-11-19T05:02:46.264Z,1.88
2022-11-19T05:05:12.788Z,2.20
2022-11-19T05:07:39.364Z,2.40
2022-11-19T05:10:06.213Z,2.08
2022-11-19T05:12:32.640Z,2.03
2022-11-19T05:14:59.179Z,1.92
2022-11-19T05:17:25.753Z,2.00
2022-11-19T05:19:52.188Z,2.00
2022-11-19T05:22:18.701Z,2.05
2022-11-19T05:24:45.181Z,1.90
2022-11-19T05:27:11.707Z,2.08
2022-11-19T05:29:38.264Z,2.30
2022-11-19T05:32:04.992Z,2.10
2022-11-19T05:34:31.541Z,2.10
2022-11-19T05:36:57.980Z,2.30
2022-11-19T05:39:24.825Z,2.08
2022-11-19T05:41:51.522Z,2.05
2022-11-19T05:44:18.376Z,2.13
2022-11-19T05:46:44.926Z,2.13
2022-11-19T05:49:11.878Z,2.05
2022-11-19T05:51:38.348Z,2.05
2022-11-19T05:54:04.943Z,2.10
2022-11-19T05:56:31.436Z,2.15
2022-11-19T05:58:57.938Z,2.20
2022-11-19T06:01:29.072Z,2.22
2022-11-19T06:03:55.859Z,2.05
2022-11-19T06:06:22.828Z,2.40
2022-11-19T06:08:49.986Z,2.20
2022-11-19T06:11:35.456Z,2.42
2022-11-19T06:14:02.348Z,2.40
2022-11-19T06:16:28.953Z,2.05
2022-11-19T06:18:55.426Z,2.10
2022-11-19T06:21:21.953Z,2.08
2022-11-19T06:23:48.498Z,2.30
2022-11-19T06:26:28.564Z,2.42
2022-11-19T06:28:55.867Z,2.20
2022-11-19T06:31:23.043Z,2.17
2022-11-19T06:33:50.181Z,2.17
2022-11-19T06:36:16.772Z,2.33
2022-11-19T06:38:43.366Z,2.30
2022-11-19T06:41:09.910Z,2.40
2022-11-19T06:43:36.454Z,2.05
2022-11-19T06:46:03.004Z,2.28
2022-11-19T06:48:29.512Z,2.28
2022-11-19T06:50:56.567Z,2.20
2022-11-19T06:53:23.342Z,2.33
2022-11-19T06:55:59.416Z,2.38
2022-11-19T06:58:26.238Z,2.60
2022-11-19T07:00:52.756Z,2.50
2022-11-19T07:03:19.861Z,2.60
2022-11-19T07:05:50.143Z,2.50
2022-11-19T07:08:17.091Z,2.53
2022-11-19T07:10:43.702Z,2.95
2022-11-19T07:13:10.174Z,2.55
2022-11-19T07:15:36.628Z,2.55
2022-11-19T07:18:03.125Z,2.72
2022-11-19T07:20:30.020Z,2.55
2022-11-19T07:22:59.342Z,2.50
2022-11-19T07:25:26.930Z,2.40
2022-11-19T07:27:53.710Z,2.38
2022-11-19T07:30:20.311Z,2.58
2022-11-19T07:32:46.808Z,2.95
2022-11-19T07:35:13.278Z,2.75
2022-11-19T07:37:39.790Z,2.63
2022-11-19T07:40:06.816Z,2.70
2022-11-19T07:42:51.571Z,2.80
2022-11-19T07:45:19.780Z,2.47
2022-11-19T07:47:46.552Z,2.58
2022-11-19T07:50:13.159Z,2.70
2022-11-19T07:52:39.778Z,2.53
2022-11-19T07:55:07.012Z,2.78
2022-11-19T07:57:33.704Z,3.00
2022-11-19T08:00:00.309Z,3.10
2022-11-19T08:02:26.933Z,2.70
2022-11-19T08:04:53.438Z,2.60
2022-11-19T08:07:20.087Z,2.67
2022-11-19T08:09:46.660Z,2.85
2022-11-19T08:12:13.214Z,2.78
2022-11-19T08:14:39.755Z,2.80
2022-11-19T08:17:38.432Z,2.55
2022-11-19T08:20:05.456Z,2.80
2022-11-19T08:22:31.917Z,2.92
2022-11-19T08:24:58.427Z,3.15
2022-11-19T08:27:25.385Z,2.90
2022-11-19T08:29:51.911Z,3.08
2022-11-19T08:32:18.444Z,3.10
2022-11-19T08:34:45.140Z,3.00
2022-11-19T08:37:13.579Z,3.00
2022-11-19T08:39:40.531Z,3.58
2022-11-19T08:42:27.266Z,3.00
2022-11-19T08:44:55.015Z,3.00
2022-11-19T08:47:21.776Z,3.03
2022-11-19T08:49:48.258Z,2.90
2022-11-19T08:52:14.785Z,3.13
2022-11-19T08:54:41.249Z,3.17
2022-11-19T08:57:07.828Z,3.20
2022-11-19T08:59:34.634Z,3.30
2022-11-19T09:02:01.130Z,3.40
2022-11-19T09:04:27.641Z,3.10
2022-11-19T09:06:54.083Z,3.55
2022-11-19T09:09:20.711Z,3.13
2022-11-19T09:11:47.205Z,3.60
2022-11-19T09:14:13.709Z,3.30
2022-11-19T09:16:40.229Z,2.88
2022-11-19T09:19:06.745Z,3.10
2022-11-19T09:21:33.227Z,3.15
2022-11-19T09:23:59.713Z,3.35
2022-11-19T09:26:26.165Z,3.20
2022-11-19T09:28:52.713Z,3.50
2022-11-19T09:31:20.296Z,3.67
2022-11-19T09:33:50.437Z,3.33
2022-11-19T09:36:18.437Z,3.55
2022-11-19T09:38:45.388Z,3.40
2022-11-19T09:41:17.783Z,3.72
2022-11-19T09:43:59.533Z,3.60
2022-11-19T09:46:39.318Z,3.22
2022-11-19T09:49:18.591Z,3.00
2022-11-19T09:51:53.052Z,3.90
2022-11-19T09:54:22.028Z,3.45
2022-11-19T09:56:51.741Z,3.35
2022-11-19T09:59:34.096Z,3.63
2022-11-19T10:02:00.603Z,3.67
2022-11-19T10:04:31.557Z,3.47
2022-11-19T10:07:35.218Z,3.83
2022-11-19T10:10:34.181Z,3.47
2022-11-19T10:13:12.713Z,3.50
2022-11-19T10:16:18.438Z,3.58
2022-11-19T10:19:31.156Z,3.78
2022-11-19T10:22:03.851Z,3.50
2022-11-19T10:24:44.688Z,3.35
2022-11-19T10:29:58.243Z,3.60
2022-11-19T10:32:38.948Z,3.33
2022-11-19T10:35:16.627Z,3.38
2022-11-19T10:37:56.149Z,3.60
2022-11-19T10:40:25.437Z,4.13
2022-11-19T10:43:01.171Z,3.17
2022-11-19T10:45:29.640Z,3.58
2022-11-19T10:48:31.102Z,3.97
2022-11-19T10:50:59.698Z,3.78
2022-11-19T10:53:38.943Z,3.30
2022-11-19T10:56:12.258Z,3.70
2022-11-19T10:59:06.609Z,3.58
2022-11-19T11:01:39.571Z,3.25
2022-11-19T11:04:12.080Z,3.53
2022-11-19T11:07:01.686Z,3.78
2022-11-19T11:09:39.334Z,3.47
2022-11-19T11:12:36.624Z,3.90
2022-11-19T11:15:25.751Z,4.20
2022-11-19T11:18:07.518Z,3.13
2022-11-19T11:20:36.309Z,3.55
2022-11-19T11:23:11.608Z,3.58
2022-11-19T11:25:40.152Z,3.72
2022-11-19T11:28:16.260Z,4.05
2022-11-19T11:31:09.232Z,3.70
2022-11-19T11:33:39.561Z,3.53
2022-11-19T11:36:10.791Z,3.45
2022-11-19T11:38:42.391Z,3.92
2022-11-19T11:42:03.717Z,3.80
2022-11-19T11:44:05.930Z,3.83
2022-11-19T11:46:38.510Z,3.10
2022-11-19T11:49:12.731Z,3.38
2022-11-19T11:51:39.880Z,3.80
2022-11-19T11:54:20.815Z,3.83
2022-11-19T11:56:47.703Z,3.33
2022-11-19T11:59:14.313Z,3.38
2022-11-19T12:01:53.026Z,3.47
2022-11-19T12:04:19.622Z,3.42
2022-11-19T12:07:12.673Z,3.78
2022-11-19T12:10:03.490Z,3.80
2022-11-19T12:12:42.655Z,3.78
2022-11-19T12:15:09.045Z,3.60
2022-11-19T12:17:48.244Z,3.63
2022-11-19T12:20:38.766Z,3.65
2022-11-19T12:23:20.151Z,3.40
2022-11-19T12:26:12.441Z,3.67
2022-11-19T12:29:22.863Z,3.95
2022-11-19T12:31:49.449Z,3.75
2022-11-19T12:34:34.177Z,3.17
2022-11-19T12:37:19.535Z,3.63
2022-11-19T12:39:53.737Z,3.75
2022-11-19T12:42:44.054Z,3.90
2022-11-19T12:45:36.838Z,3.55
2022-11-19T12:48:37.711Z,3.80
2022-11-19T12:51:25.583Z,3.67
2022-11-19T12:54:25.352Z,3.78
2022-11-19T12:57:28.828Z,4.00
2022-11-19T13:00:11.091Z,3.70
2022-11-19T13:03:06.699Z,4.00
2022-11-19T13:05:38.152Z,3.90
2022-11-19T13:08:12.079Z,3.85
2022-11-19T13:10:42.976Z,3.30
2022-11-19T13:13:14.630Z,3.63
2022-11-19T13:16:00.045Z,3.85
2022-11-19T13:18:31.136Z,3.72
2022-11-19T13:21:07.503Z,4.07
2022-11-19T13:23:40.909Z,3.70
2022-11-19T13:26:13.097Z,3.63
2022-11-19T13:28:47.064Z,3.95
2022-11-19T13:31:22.814Z,3.67
2022-11-19T13:34:06.015Z,3.78
2022-11-19T13:36:41.652Z,3.78
2022-11-19T13:39:23.183Z,3.80
2022-11-19T13:42:10.589Z,3.60
2022-11-19T13:44:44.048Z,3.75
2022-11-19T13:47:42.131Z,3.65
2022-11-19T13:50:32.665Z,3.83
2022-11-19T13:53:14.058Z,4.05
2022-11-19T13:55:42.492Z,3.35
2022-11-19T13:58:17.863Z,3.50
2022-11-19T14:01:00.331Z,3.50
2022-11-19T14:03:47.347Z,3.53
2022-11-19T14:06:35.809Z,3.70
2022-11-19T14:09:37.589Z,3.55
2022-11-19T14:12:25.634Z,3.10
2022-11-19T14:15:43.822Z,3.47
2022-11-19T14:18:51.557Z,3.42
2022-11-19T14:21:42.537Z,3.50
2022-11-19T14:24:46.028Z,3.75
2022-11-19T14:27:29.287Z,3.88
2022-11-19T14:30:04.970Z,3.40
2022-11-19T14:32:35.227Z,3.17
2022-11-19T14:35:01.725Z,3.60
2022-11-19T14:37:41.470Z,4.00
2022-11-19T14:40:10.910Z,3.40
2022-11-19T14:43:17.371Z,3.90
2022-11-19T14:46:05.277Z,3.40
2022-11-19T14:48:34.038Z,3.70
2022-11-19T14:51:18.216Z,3.50
2022-11-19T14:53:52.467Z,3.63
2022-11-19T14:56:21.953Z,3.45
2022-11-19T14:58:56.201Z,3.40
2022-11-19T15:01:24.040Z,3.28
2022-11-19T15:04:02.706Z,3.55
2022-11-19T15:06:35.308Z,3.38
2022-11-19T15:09:02.231Z,3.40
2022-11-19T15:12:06.057Z,3.70
2022-11-19T15:14:36.991Z,3.70
2022-11-19T15:17:06.692Z,3.70
2022-11-19T15:20:04.452Z,3.35
2022-11-19T15:22:50.935Z,3.38
2022-11-19T15:25:20.510Z,3.67
2022-11-19T15:27:55.068Z,3.40
2022-11-19T15:30:40.805Z,3.60
2022-11-19T15:33:16.273Z,3.33
2022-11-19T15:36:05.523Z,2.90
2022-11-19T15:38:39.760Z,3.33
2022-11-19T15:41:12.762Z,2.97
2022-11-19T15:43:53.609Z,3.22
2022-11-19T15:49:04.771Z,3.58
2022-11-19T15:51:49.869Z,3.47
2022-11-19T15:54:16.470Z,3.15
2022-11-19T15:56:50.358Z,3.15
2022-11-19T15:59:20.076Z,3.38
2022-11-19T16:02:01.078Z,3.00
2022-11-19T16:04:39.054Z,2.97
2022-11-19T16:07:08.976Z,2.97
2022-11-19T16:09:36.059Z,3.47
2022-11-19T16:12:21.786Z,3.10
2022-11-19T16:15:11.304Z,3.20
2022-11-19T16:17:46.484Z,2.80
2022-11-19T16:20:13.048Z,3.00
2022-11-19T16:22:45.782Z,3.05
2022-11-19T16:25:25.385Z,3.05
2022-11-19T16:27:55.551Z,3.00
2022-11-19T16:30:25.626Z,3.38
2022-11-19T16:32:56.931Z,3.03
2022-11-19T16:35:27.345Z,2.97
2022-11-19T16:37:55.408Z,2.93
2022-11-19T16:40:22.929Z,2.83
2022-11-19T16:42:53.743Z,3.40
2022-11-19T16:48:31.945Z,2.90
2022-11-19T16:51:26.671Z,3.10
2022-11-19T16:53:53.383Z,3.55
2022-11-19T16:56:19.945Z,3.00
2022-11-19T16:58:46.957Z,2.95
2022-11-19T17:01:17.759Z,3.10
2022-11-19T17:03:45.203Z,3.10
2022-11-19T17:06:24.274Z,2.65
2022-11-19T17:08:58.713Z,3.20
2022-11-19T17:12:09.086Z,2.72
2022-11-19T17:14:35.579Z,3.00
2022-11-19T17:17:03.419Z,2.63
2022-11-19T17:19:34.952Z,3.03
2022-11-19T17:22:03.076Z,3.00
2022-11-19T17:24:40.412Z,3.10
2022-11-19T17:27:11.396Z,2.70
2022-11-19T17:29:37.924Z,2.60
2022-11-19T17:32:04.591Z,2.80
2022-11-19T17:34:33.810Z,3.00
2022-11-19T17:37:00.437Z,3.13
2022-11-19T17:39:27.104Z,2.80
2022-11-19T17:42:15.283Z,2.70
2022-11-19T17:44:41.881Z,2.85
2022-11-19T17:47:22.762Z,3.10
2022-11-19T17:49:50.436Z,2.78
2022-11-19T17:52:29.212Z,2.85
2022-11-19T17:55:10.803Z,3.33
2022-11-19T17:57:42.343Z,3.22
2022-11-19T18:00:10.441Z,2.70
2022-11-19T18:02:37.118Z,2.47
2022-11-19T18:05:15.778Z,2.75
2022-11-19T18:07:42.489Z,2.58
2022-11-19T18:10:09.824Z,3.00
2022-11-19T18:12:36.441Z,2.45
2022-11-19T18:15:04.540Z,2.63
2022-11-19T18:17:31.122Z,3.17
2022-11-19T18:19:57.613Z,2.95
2022-11-19T18:22:24.191Z,3.17
2022-11-19T18:24:51.760Z,2.88
2022-11-19T18:27:18.326Z,3.00
2022-11-19T18:29:45.231Z,2.85
2022-11-19T18:32:15.253Z,2.38
2022-11-19T18:34:41.754Z,2.72
2022-11-19T18:37:08.730Z,2.90
2022-11-19T18:39:35.490Z,2.65
2022-11-19T18:42:02.045Z,2.75
2022-11-19T18:44:34.623Z,2.33
2022-11-19T18:47:06.783Z,2.88
2022-11-19T18:49:34.944Z,2.67
2022-11-19T18:52:02.495Z,2.47
2022-11-19T18:54:29.141Z,2.42
2022-11-19T18:56:55.724Z,2.58
2022-11-19T18:59:23.007Z,2.78
2022-11-19T19:01:52.163Z,2.65
2022-11-19T19:04:19.112Z,2.90
2022-11-19T19:06:45.631Z,2.85
2022-11-19T19:09:12.188Z,2.63
2022-11-19T19:11:57.183Z,2.40
2022-11-19T19:14:23.725Z,2.63
2022-11-19T19:16:50.970Z,2.47
2022-11-19T19:19:19.996Z,2.55
2022-11-19T19:21:47.502Z,2.45
2022-11-19T19:24:14.607Z,2.80
2022-11-19T19:26:41.356Z,3.05
2022-11-19T19:29:08.151Z,2.83
2022-11-19T19:31:35.011Z,2.50
2022-11-19T19:34:01.567Z,2.38
2022-11-19T19:36:28.133Z,2.60
2022-11-19T19:38:54.688Z,2.72
2022-11-19T19:41:23.622Z,2.45
2022-11-19T19:43:50.247Z,2.90
2022-11-19T19:46:19.019Z,2.50
2022-11-19T19:48:48.300Z,2.88
2022-11-19T19:51:16.504Z,2.67
2022-11-19T19:53:43.662Z,2.53
2022-11-19T19:56:10.082Z,2.40
2022-11-19T19:58:38.263Z,2.58
2022-11-19T20:01:08.735Z,2.60
2022-11-19T20:03:36.023Z,2.47
2022-11-19T20:06:04.439Z,2.63
2022-11-19T20:08:31.353Z,2.47
2022-11-19T20:11:03.023Z,2.22
2022-11-19T20:13:31.918Z,2.25
2022-11-19T20:16:04.733Z,2.55
2022-11-19T20:18:32.632Z,2.65
2022-11-19T20:21:00.681Z,2.40
2022-11-19T20:23:30.680Z,2.63
2022-11-19T20:26:07.965Z,2.50
2022-11-19T20:28:34.750Z,2.53
2022-11-19T20:31:19.439Z,2.75
2022-11-19T20:33:47.852Z,2.35
2022-11-19T20:36:15.771Z,2.33
2022-11-19T20:38:45.891Z,2.33
2022-11-19T20:41:32.814Z,2.38
2022-11-19T20:44:20.584Z,2.58
2022-11-19T20:46:52.068Z,2.33
2022-11-19T20:49:20.594Z,2.30
2022-11-19T20:51:47.836Z,2.58
2022-11-19T20:54:14.579Z,2.67
2022-11-19T20:56:41.957Z,2.40
2022-11-19T20:59:09.310Z,2.25
2022-11-19T21:01:36.973Z,2.50
2022-11-19T21:04:03.960Z,2.50
2022-11-19T21:06:31.058Z,2.38
2022-11-19T21:08:57.620Z,2.60
2022-11-19T21:11:24.630Z,2.60
2022-11-19T21:13:51.216Z,2.42
2022-11-19T21:16:25.922Z,2.70
2022-11-19T21:18:52.886Z,2.70
2022-11-19T21:21:20.976Z,2.60
2022-11-19T21:23:48.304Z,2.47
2022-11-19T21:26:18.201Z,2.80
2022-11-19T21:28:46.936Z,2.47
2022-11-19T21:31:15.479Z,2.90
2022-11-19T21:33:41.997Z,2.30
2022-11-19T21:36:08.893Z,2.80
2022-11-19T21:38:35.817Z,2.50
2022-11-19T21:41:02.617Z,2.63
2022-11-19T21:43:30.595Z,2.25
2022-11-19T21:45:57.716Z,2.42
2022-11-19T21:48:25.532Z,2.65
2022-11-19T21:50:52.680Z,2.63
2022-11-19T21:53:19.749Z,2.80
2022-11-19T21:55:46.600Z,2.33
2022-11-19T21:58:14.930Z,2.70
2022-11-19T22:00:42.205Z,2.35
2022-11-19T22:03:08.809Z,2.58
2022-11-19T22:05:35.793Z,2.35
2022-11-19T22:08:02.432Z,2.60
2022-11-19T22:10:29.789Z,2.50
2022-11-19T22:12:59.665Z,2.53
2022-11-19T22:15:26.705Z,2.67
2022-11-19T22:17:53.702Z,3.00
2022-11-19T22:20:20.282Z,2.33
2022-11-19T22:22:46.832Z,2.47
2022-11-19T22:25:13.894Z,2.25
2022-11-19T22:27:41.687Z,2.28
2022-11-19T22:30:10.216Z,2.63
2022-11-19T22:32:37.276Z,2.50
2022-11-19T22:35:04.689Z,2.55
2022-11-19T22:37:31.202Z,2.67
2022-11-19T22:39:57.684Z,2.58
2022-11-19T22:42:24.213Z,2.80
2022-11-19T22:44:51.371Z,2.75
2022-11-19T22:47:18.146Z,3.05
2022-11-19T22:49:44.612Z,2.58
2022-11-19T22:52:11.145Z,2.50
2022-11-19T22:54:41.584Z,2.70
2022-11-19T22:59:35.016Z,2.55
2022-11-19T23:02:01.556Z,2.80
2022-11-19T23:04:28.972Z,2.50
2022-11-19T23:06:55.682Z,2.50
2022-11-19T23:09:22.578Z,2.50
2022-11-19T23:12:07.961Z,2.85
2022-11-19T23:14:34.441Z,2.63
2022-11-19T23:17:00.923Z,2.47
2022-11-19T23:19:27.597Z,2.50
2022-11-19T23:21:54.069Z,2.95
2022-11-19T23:24:20.661Z,2.63
2022-11-19T23:26:47.144Z,2.53
2022-11-19T23:29:13.597Z,2.72
2022-11-19T23:31:40.625Z,2.80
2022-11-19T23:34:07.849Z,2.63
2022-11-19T23:36:37.662Z,3.20
2022-11-19T23:39:05.728Z,2.57
2022-11-19T23:41:33.824Z,2.67
2022-11-19T23:44:00.665Z,2.88
2022-11-19T23:46:29.664Z,2.70
2022-11-19T23:48:57.464Z,2.53
2022-11-19T23:51:31.759Z,2.72
2022-11-19T23:53:58.855Z,2.70
2022-11-19T23:56:26.505Z,2.63
2022-11-19T23:58:53.309Z,2.92
